createdAt,value
2019-01-13T00:00:42.105Z,4.93
2019-01-13T00:03:11.770Z,5.97
2019-01-13T00:05:41.112Z,5.80
2019-01-13T00:08:10.746Z,6.83
2019-01-13T00:10:41.376Z,6.03
2019-01-13T00:13:11.973Z,6.20
2019-01-13T00:15:41.553Z,5.53
2019-01-13T00:18:10.878Z,5.50
2019-01-13T00:20:40.455Z,5.70
2019-01-13T00:23:09.475Z,6.23
2019-01-13T00:25:38.469Z,5.50
2019-01-13T00:28:07.543Z,5.93
2019-01-13T00:30:36.934Z,5.93
2019-01-13T00:33:05.951Z,6.27
2019-01-13T00:35:35.516Z,6.43
2019-01-13T00:38:05.580Z,5.57
2019-01-13T00:40:34.958Z,5.87
2019-01-13T00:43:04.607Z,5.50
2019-01-13T00:45:33.571Z,5.83
2019-01-13T00:48:03.134Z,6.27
2019-01-13T00:50:32.466Z,6.30
2019-01-13T00:53:01.851Z,6.77
2019-01-13T00:55:31.423Z,6.40
2019-01-13T00:58:00.716Z,6.80
2019-01-13T01:00:30.063Z,5.47
2019-01-13T01:02:59.363Z,6.40
2019-01-13T01:05:28.773Z,6.43
2019-01-13T01:07:57.806Z,5.93
2019-01-13T01:10:26.872Z,6.27
2019-01-13T01:12:57.008Z,6.07
2019-01-13T01:15:26.864Z,5.87
2019-01-13T01:17:55.824Z,6.00
2019-01-13T01:20:25.814Z,5.60
2019-01-13T01:22:55.555Z,6.00
2019-01-13T01:25:25.462Z,5.07
2019-01-13T01:27:54.625Z,5.33
2019-01-13T01:30:23.786Z,5.33
2019-01-13T01:32:53.276Z,5.10
2019-01-13T01:35:22.956Z,4.10
2019-01-13T01:37:52.783Z,4.30
2019-01-13T01:40:23.536Z,4.43
2019-01-13T01:43:14.665Z,3.37
2019-01-13T01:45:44.543Z,3.03
2019-01-13T01:48:37.809Z,4.17
2019-01-13T01:51:08.529Z,3.37
2019-01-13T01:53:40.217Z,3.90
2019-01-13T01:56:10.500Z,4.30
2019-01-13T01:58:39.677Z,4.30
2019-01-13T02:01:08.843Z,4.00
2019-01-13T02:03:38.886Z,4.73
2019-01-13T02:06:13.386Z,4.00
2019-01-13T02:08:43.973Z,4.10
2019-01-13T02:11:14.921Z,4.30
2019-01-13T02:13:55.726Z,4.00
2019-01-13T02:16:30.100Z,4.50
2019-01-13T02:19:00.800Z,4.83
2019-01-13T02:21:50.163Z,5.17
2019-01-13T02:24:59.334Z,4.93
2019-01-13T02:28:03.583Z,5.00
2019-01-13T02:34:05.759Z,6.13
2019-01-13T02:36:52.567Z,7.13
2019-01-13T02:39:20.797Z,6.77
2019-01-13T02:42:49.686Z,7.10
2019-01-13T02:49:53.671Z,8.17
2019-01-13T02:53:26.961Z,9.33
2019-01-13T03:00:30.887Z,9.93
2019-01-13T03:03:13.510Z,9.60
2019-01-13T03:05:47.913Z,9.47
2019-01-13T03:08:22.198Z,9.87
2019-01-13T03:10:48.608Z,11.00
2019-01-13T03:13:17.807Z,10.63
2019-01-13T03:15:47.441Z,9.73
2019-01-13T03:18:16.695Z,11.00
2019-01-13T03:20:46.190Z,10.37
2019-01-13T03:23:20.251Z,10.30
2019-01-13T03:25:49.330Z,9.63
2019-01-13T03:28:18.787Z,9.73
2019-01-13T03:30:48.238Z,9.90
2019-01-13T03:33:17.612Z,10.57
2019-01-13T03:35:46.666Z,10.37
2019-01-13T03:38:16.004Z,9.50
2019-01-13T03:41:07.769Z,9.93
2019-01-13T03:43:37.232Z,8.50
2019-01-13T03:46:06.349Z,9.00
2019-01-13T03:48:35.649Z,8.23
2019-01-13T03:51:16.491Z,9.33
2019-01-13T03:53:46.272Z,7.63
2019-01-13T03:56:15.900Z,8.40
2019-01-13T03:58:50.714Z,8.20
2019-01-13T04:01:24.371Z,7.33
2019-01-13T04:03:55.055Z,7.70
2019-01-13T04:06:40.472Z,7.53
2019-01-13T04:09:12.624Z,7.27
2019-01-13T04:11:41.700Z,7.03
2019-01-13T04:14:12.372Z,7.30
2019-01-13T04:16:42.382Z,7.17
2019-01-13T04:19:11.635Z,7.03
2019-01-13T04:21:41.110Z,7.70
2019-01-13T04:24:10.010Z,7.17
2019-01-13T04:26:39.206Z,6.60
2019-01-13T04:29:08.493Z,7.73
2019-01-13T04:31:38.054Z,7.80
2019-01-13T04:34:07.636Z,7.40
2019-01-13T04:36:36.672Z,7.77
2019-01-13T04:39:07.224Z,8.33
2019-01-13T04:41:36.726Z,8.53
2019-01-13T04:44:05.992Z,7.97
2019-01-13T04:46:35.510Z,8.57
2019-01-13T04:49:05.092Z,8.53
2019-01-13T04:51:34.034Z,8.10
2019-01-13T04:54:06.729Z,8.83
2019-01-13T04:56:36.511Z,8.77
2019-01-13T04:59:06.479Z,8.53
2019-01-13T05:01:36.943Z,8.87
2019-01-13T05:04:06.403Z,9.20
2019-01-13T05:06:35.786Z,9.13
2019-01-13T05:09:08.032Z,8.93
2019-01-13T05:11:37.496Z,10.30
2019-01-13T05:14:07.010Z,10.20
2019-01-13T05:16:36.218Z,9.23
2019-01-13T05:19:05.536Z,9.93
2019-01-13T05:21:34.851Z,10.20
2019-01-13T05:24:04.435Z,10.17
2019-01-13T05:26:33.753Z,9.50
2019-01-13T05:29:03.033Z,9.50
2019-01-13T05:31:32.415Z,9.60
2019-01-13T05:34:01.463Z,10.30
2019-01-13T05:36:33.827Z,10.13
2019-01-13T05:39:10.476Z,9.60
2019-01-13T05:41:40.029Z,9.77
2019-01-13T05:44:09.369Z,9.60
2019-01-13T05:46:46.246Z,9.47
2019-01-13T05:49:12.883Z,9.87
2019-01-13T05:51:44.396Z,10.33
2019-01-13T05:54:13.471Z,11.10
2019-01-13T05:56:42.397Z,10.20
2019-01-13T05:59:11.351Z,11.27
2019-01-13T06:01:48.970Z,11.27
2019-01-13T06:04:13.551Z,11.53
2019-01-13T06:06:46.756Z,10.83
2019-01-13T06:09:15.889Z,11.50
2019-01-13T06:11:51.310Z,10.87
2019-01-13T06:14:20.256Z,11.50
2019-01-13T06:16:49.545Z,11.37
2019-01-13T06:19:18.665Z,12.17
2019-01-13T06:21:47.540Z,11.17
2019-01-13T06:24:16.430Z,11.83
2019-01-13T06:26:45.358Z,11.60
2019-01-13T06:29:14.031Z,12.70
2019-01-13T06:31:42.927Z,11.73
2019-01-13T06:34:11.838Z,11.90
2019-01-13T06:36:40.787Z,12.27
2019-01-13T06:39:09.948Z,12.07
2019-01-13T06:41:39.063Z,12.37
2019-01-13T06:44:07.979Z,12.87
2019-01-13T06:46:37.085Z,13.07
2019-01-13T06:49:05.731Z,12.40
2019-01-13T06:51:34.909Z,13.37
2019-01-13T06:54:03.947Z,12.80
2019-01-13T06:56:33.159Z,14.60
2019-01-13T06:59:01.552Z,13.07
2019-01-13T07:01:30.937Z,13.87
2019-01-13T07:03:59.825Z,13.43
2019-01-13T07:06:29.061Z,13.30
2019-01-13T07:08:57.914Z,13.00
2019-01-13T07:11:26.571Z,12.93
2019-01-13T07:13:55.868Z,12.97
2019-01-13T07:16:24.676Z,13.87
2019-01-13T07:18:53.722Z,13.17
2019-01-13T07:21:22.648Z,13.03
2019-01-13T07:24:05.704Z,12.53
2019-01-13T07:26:34.692Z,13.60
2019-01-13T07:29:03.895Z,13.47
2019-01-13T07:31:32.999Z,13.90
2019-01-13T07:34:02.123Z,12.73
2019-01-13T07:36:30.647Z,12.70
2019-01-13T07:38:59.617Z,14.30
2019-01-13T07:41:29.055Z,13.83
2019-01-13T07:43:58.612Z,13.83
2019-01-13T07:46:27.527Z,13.77
2019-01-13T07:48:56.697Z,14.43
2019-01-13T07:51:25.195Z,14.17
2019-01-13T07:53:54.404Z,15.97
2019-01-13T07:56:23.360Z,15.13
2019-01-13T07:58:52.493Z,14.30
2019-01-13T08:01:21.784Z,15.43
2019-01-13T08:03:51.251Z,15.57
2019-01-13T08:06:20.719Z,14.33
2019-01-13T08:08:50.032Z,15.30
2019-01-13T08:11:19.476Z,16.27
2019-01-13T08:13:48.592Z,14.27
2019-01-13T08:16:17.463Z,16.37
2019-01-13T08:18:46.758Z,17.07
2019-01-13T08:21:15.849Z,16.07
2019-01-13T08:23:44.758Z,16.47
2019-01-13T08:26:13.856Z,17.00
2019-01-13T08:28:42.760Z,17.97
2019-01-13T08:31:11.792Z,17.03
2019-01-13T08:33:40.731Z,16.27
2019-01-13T08:36:10.033Z,17.17
2019-01-13T08:38:38.908Z,17.10
2019-01-13T08:41:08.157Z,18.07
2019-01-13T08:43:37.098Z,16.40
2019-01-13T08:46:05.934Z,16.43
2019-01-13T08:48:34.882Z,17.20
2019-01-13T08:51:03.865Z,18.27
2019-01-13T08:53:33.053Z,17.27
2019-01-13T08:56:01.911Z,17.03
2019-01-13T08:58:31.876Z,16.60
2019-01-13T09:01:00.899Z,16.27
2019-01-13T09:03:30.441Z,16.30
2019-01-13T09:05:59.716Z,17.33
2019-01-13T09:08:28.674Z,16.63
2019-01-13T09:10:57.844Z,17.27
2019-01-13T09:13:27.319Z,17.57
2019-01-13T09:15:56.255Z,15.80
2019-01-13T09:18:25.124Z,16.93
2019-01-13T09:20:53.950Z,16.33
2019-01-13T09:23:23.046Z,15.33
2019-01-13T09:25:53.232Z,15.53
2019-01-13T09:28:22.318Z,14.67
2019-01-13T09:30:51.475Z,14.07
2019-01-13T09:33:20.398Z,14.43
2019-01-13T09:35:49.364Z,12.70
2019-01-13T09:38:19.241Z,12.97
2019-01-13T09:40:48.100Z,13.40
2019-01-13T09:43:17.081Z,13.80
2019-01-13T09:45:45.950Z,13.63
2019-01-13T09:48:15.356Z,12.87
2019-01-13T09:50:44.217Z,12.90
2019-01-13T09:53:13.232Z,12.30
2019-01-13T09:55:42.624Z,12.93
2019-01-13T09:58:11.780Z,11.07
2019-01-13T10:00:40.671Z,11.23
2019-01-13T10:03:10.591Z,10.20
2019-01-13T10:05:39.823Z,9.57
2019-01-13T10:08:09.199Z,10.40
2019-01-13T10:10:38.168Z,9.53
2019-01-13T10:13:07.195Z,9.17
2019-01-13T10:15:36.398Z,9.00
2019-01-13T10:18:05.647Z,8.23
2019-01-13T10:20:36.240Z,8.03
2019-01-13T10:23:05.426Z,7.60
2019-01-13T10:25:34.314Z,7.07
2019-01-13T10:28:03.698Z,7.30
2019-01-13T10:30:33.259Z,5.90
2019-01-13T10:33:02.547Z,6.20
2019-01-13T10:35:31.481Z,5.57
2019-01-13T10:38:01.074Z,5.53
2019-01-13T10:40:31.378Z,4.33
2019-01-13T10:43:00.695Z,4.13
2019-01-13T10:45:30.292Z,4.13
2019-01-13T10:47:59.519Z,3.83
2019-01-13T10:50:30.234Z,3.33
2019-01-13T10:53:04.332Z,2.97
2019-01-13T10:55:33.212Z,2.50
2019-01-13T10:58:02.242Z,1.87
2019-01-13T11:00:33.367Z,2.37
2019-01-13T11:03:02.823Z,1.90
2019-01-13T11:05:32.078Z,1.90
2019-01-13T11:08:01.164Z,1.50
2019-01-13T11:10:30.135Z,1.40
2019-01-13T11:12:59.097Z,1.10
2019-01-13T11:15:28.033Z,0.80
2019-01-13T11:17:57.271Z,1.40
2019-01-13T11:20:44.400Z,1.33
2019-01-13T11:23:13.763Z,1.00
2019-01-13T11:25:42.559Z,1.30
2019-01-13T11:28:11.756Z,0.97
2019-01-13T11:30:40.658Z,0.93
2019-01-13T11:33:09.992Z,0.90
2019-01-13T11:35:39.678Z,1.00
2019-01-13T11:38:09.752Z,3.00
2019-01-13T11:40:38.639Z,30.63
2019-01-13T11:43:07.614Z,1.10
2019-01-13T11:45:36.814Z,1.30
2019-01-13T11:48:06.129Z,1.80
2019-01-13T11:50:35.015Z,1.40
2019-01-13T11:53:04.205Z,1.57
2019-01-13T11:55:33.049Z,1.27
2019-01-13T11:58:01.862Z,1.57
2019-01-13T12:00:36.694Z,1.30
2019-01-13T12:03:06.928Z,1.00
2019-01-13T12:05:37.294Z,0.90
2019-01-13T12:08:06.414Z,1.10
2019-01-13T12:10:35.358Z,0.93
2019-01-13T12:13:04.963Z,1.00
2019-01-13T12:15:33.842Z,1.00
2019-01-13T12:18:03.035Z,1.30
2019-01-13T12:20:31.980Z,1.10
2019-01-13T12:23:00.911Z,1.30
2019-01-13T12:25:29.864Z,1.30
2019-01-13T12:27:58.863Z,1.40
2019-01-13T12:30:30.235Z,1.30
2019-01-13T12:32:59.958Z,1.20
2019-01-13T12:35:28.908Z,1.17
2019-01-13T12:37:58.163Z,1.47
2019-01-13T12:40:28.219Z,1.20
2019-01-13T12:42:57.250Z,1.63
2019-01-13T12:45:26.723Z,1.70
2019-01-13T12:47:55.668Z,1.70
2019-01-13T12:50:29.572Z,1.67
2019-01-13T12:52:59.346Z,2.10
2019-01-13T12:55:28.844Z,1.87
2019-01-13T12:57:57.775Z,1.83
2019-01-13T13:00:26.840Z,1.50
2019-01-13T13:03:00.725Z,1.73
2019-01-13T13:05:29.731Z,1.80
2019-01-13T13:11:44.624Z,2.27
2019-01-13T13:14:24.562Z,1.43
2019-01-13T13:16:53.874Z,1.90
2019-01-13T13:19:23.126Z,1.70
2019-01-13T13:21:51.949Z,1.70
2019-01-13T13:24:21.073Z,1.80
2019-01-13T13:26:50.255Z,2.03
2019-01-13T13:29:19.155Z,1.70
2019-01-13T13:31:48.377Z,2.30
2019-01-13T13:34:24.829Z,6.10
2019-01-13T13:36:53.942Z,1.80
2019-01-13T13:39:23.074Z,4.03
2019-01-13T13:41:51.885Z,2.30
2019-01-13T13:44:20.779Z,2.00
2019-01-13T13:46:50.224Z,2.40
2019-01-13T13:49:19.088Z,2.60
2019-01-13T13:51:48.557Z,4.30
2019-01-13T13:54:17.433Z,2.50
2019-01-13T13:56:46.322Z,3.10
2019-01-13T13:59:15.547Z,2.30
2019-01-13T14:01:44.732Z,2.30
2019-01-13T14:04:14.214Z,2.70
2019-01-13T14:06:43.036Z,2.37
2019-01-13T14:09:11.941Z,2.90
2019-01-13T14:11:41.078Z,2.37
2019-01-13T14:14:09.864Z,3.07
2019-01-13T14:16:39.071Z,2.70
2019-01-13T14:19:07.960Z,24.97
2019-01-13T14:21:37.280Z,6.97
2019-01-13T14:24:06.498Z,3.00
2019-01-13T14:26:35.687Z,4.67
2019-01-13T14:29:04.663Z,3.93
2019-01-13T14:31:33.525Z,6.13
2019-01-13T14:34:02.432Z,4.20
2019-01-13T14:36:31.270Z,4.47
2019-01-13T14:39:00.096Z,3.90
2019-01-13T14:41:29.230Z,3.67
2019-01-13T14:43:58.105Z,4.50
2019-01-13T14:46:27.206Z,3.27
2019-01-13T14:48:56.762Z,3.50
2019-01-13T14:51:25.715Z,3.10
2019-01-13T14:53:54.566Z,3.50
2019-01-13T14:56:23.626Z,3.90
2019-01-13T14:58:52.488Z,3.53
2019-01-13T15:01:21.386Z,4.33
2019-01-13T15:03:50.244Z,4.30
2019-01-13T15:06:19.493Z,4.47
2019-01-13T15:08:48.343Z,4.53
2019-01-13T15:11:17.391Z,4.33
2019-01-13T15:13:46.230Z,4.70
2019-01-13T15:16:15.395Z,4.40
2019-01-13T15:18:44.330Z,4.53
2019-01-13T15:21:13.376Z,4.80
2019-01-13T15:23:42.199Z,5.33
2019-01-13T15:26:11.363Z,5.03
2019-01-13T15:28:40.296Z,4.97
2019-01-13T15:31:09.493Z,5.30
2019-01-13T15:33:38.392Z,5.07
2019-01-13T15:36:07.301Z,4.23
2019-01-13T15:38:36.720Z,3.70
2019-01-13T15:41:05.828Z,4.23
2019-01-13T15:43:35.043Z,3.20
2019-01-13T15:46:04.027Z,3.33
2019-01-13T15:48:32.916Z,3.27
2019-01-13T15:51:01.754Z,3.90
2019-01-13T15:53:31.023Z,4.03
2019-01-13T15:56:00.144Z,3.60
2019-01-13T15:58:28.991Z,3.47
2019-01-13T16:00:57.868Z,3.57
2019-01-13T16:03:27.007Z,3.23
2019-01-13T16:05:56.263Z,3.90
2019-01-13T16:08:25.570Z,3.97
2019-01-13T16:10:55.144Z,3.33
2019-01-13T16:13:24.371Z,3.67
2019-01-13T16:15:53.249Z,3.57
2019-01-13T16:18:22.471Z,3.13
2019-01-13T16:20:51.444Z,3.00
2019-01-13T16:23:20.352Z,2.87
2019-01-13T16:25:49.627Z,2.67
2019-01-13T16:28:18.715Z,2.70
2019-01-13T16:30:47.891Z,2.57
2019-01-13T16:33:16.712Z,2.57
2019-01-13T16:35:45.913Z,2.37
2019-01-13T16:38:14.811Z,2.27
2019-01-13T16:40:43.664Z,2.50
2019-01-13T16:43:13.199Z,2.60
2019-01-13T16:45:42.498Z,2.30
2019-01-13T16:48:11.824Z,2.10
2019-01-13T16:50:40.887Z,2.10
2019-01-13T16:53:09.711Z,2.23
2019-01-13T16:55:38.727Z,2.20
2019-01-13T16:58:10.519Z,1.80
2019-01-13T17:00:39.812Z,2.10
2019-01-13T17:03:08.961Z,2.03
2019-01-13T17:05:38.051Z,1.73
2019-01-13T17:08:08.429Z,1.63
2019-01-13T17:10:38.060Z,2.20
2019-01-13T17:13:07.038Z,1.83
2019-01-13T17:15:37.520Z,1.50
2019-01-13T17:18:07.895Z,1.97
2019-01-13T17:20:36.864Z,1.70
2019-01-13T17:23:06.162Z,1.30
2019-01-13T17:25:35.333Z,2.30
2019-01-13T17:28:04.463Z,1.93
2019-01-13T17:30:37.347Z,1.80
2019-01-13T17:33:06.717Z,1.50
2019-01-13T17:35:36.086Z,1.83
2019-01-13T17:38:05.306Z,1.73
2019-01-13T17:40:34.516Z,2.40
2019-01-13T17:43:03.591Z,1.87
2019-01-13T17:45:33.196Z,2.10
2019-01-13T17:48:02.535Z,2.23
2019-01-13T17:50:31.510Z,2.10
2019-01-13T17:53:00.502Z,1.80
2019-01-13T17:55:31.268Z,1.83
2019-01-13T17:58:00.701Z,1.97
2019-01-13T18:00:45.530Z,2.30
2019-01-13T18:03:17.186Z,1.90
2019-01-13T18:05:46.189Z,2.17
2019-01-13T18:08:15.140Z,2.00
2019-01-13T18:10:44.027Z,1.70
2019-01-13T18:13:13.140Z,1.50
2019-01-13T18:15:42.036Z,1.70
2019-01-13T18:18:11.013Z,1.47
2019-01-13T18:20:39.983Z,1.80
2019-01-13T18:23:09.430Z,1.80
2019-01-13T18:25:38.381Z,1.77
2019-01-13T18:28:07.571Z,1.83
2019-01-13T18:30:36.519Z,2.00
2019-01-13T18:33:06.020Z,1.80
2019-01-13T18:35:34.933Z,1.93
2019-01-13T18:38:04.375Z,1.60
2019-01-13T18:40:33.329Z,1.50
2019-01-13T18:43:02.668Z,1.77
2019-01-13T18:45:31.672Z,1.90
2019-01-13T18:48:00.796Z,1.83
2019-01-13T18:50:29.749Z,1.60
2019-01-13T18:53:05.242Z,1.50
2019-01-13T18:55:34.111Z,1.40
2019-01-13T18:58:03.046Z,1.40
2019-01-13T19:00:32.359Z,1.70
2019-01-13T19:03:01.415Z,1.50
2019-01-13T19:05:30.587Z,1.70
2019-01-13T19:07:59.541Z,1.60
2019-01-13T19:10:55.299Z,1.23
2019-01-13T19:13:47.463Z,1.40
2019-01-13T19:16:18.577Z,1.40
2019-01-13T19:18:47.853Z,1.37
2019-01-13T19:21:17.293Z,1.17
2019-01-13T19:23:46.308Z,1.07
2019-01-13T19:26:15.146Z,1.10
2019-01-13T19:28:44.354Z,1.10
2019-01-13T19:31:13.450Z,1.10
2019-01-13T19:33:42.567Z,1.17
2019-01-13T19:36:11.735Z,1.07
2019-01-13T19:38:40.768Z,1.00
2019-01-13T19:41:09.956Z,1.10
2019-01-13T19:43:38.915Z,1.00
2019-01-13T19:46:08.172Z,1.30
2019-01-13T19:48:37.390Z,0.93
2019-01-13T19:51:06.351Z,0.80
2019-01-13T19:53:35.643Z,1.00
2019-01-13T19:56:05.086Z,1.10
2019-01-13T19:58:34.037Z,0.90
2019-01-13T20:01:03.084Z,1.20
2019-01-13T20:03:32.005Z,0.80
2019-01-13T20:06:01.279Z,1.00
2019-01-13T20:08:30.732Z,0.83
2019-01-13T20:10:59.778Z,0.97
2019-01-13T20:13:28.726Z,1.00
2019-01-13T20:15:57.720Z,1.43
2019-01-13T20:18:26.758Z,1.40
2019-01-13T20:20:56.050Z,1.27
2019-01-13T20:23:25.111Z,1.17
2019-01-13T20:25:53.995Z,1.60
2019-01-13T20:28:22.922Z,1.63
2019-01-13T20:30:52.263Z,1.20
2019-01-13T20:33:21.137Z,1.47
2019-01-13T20:35:50.371Z,1.90
2019-01-13T20:38:19.472Z,1.53
2019-01-13T20:40:48.667Z,1.60
2019-01-13T20:43:17.850Z,1.47
2019-01-13T20:45:47.119Z,1.70
2019-01-13T20:48:16.238Z,1.63
2019-01-13T20:50:45.212Z,1.73
2019-01-13T20:53:14.242Z,1.70
2019-01-13T20:55:43.650Z,1.60
2019-01-13T20:58:12.835Z,1.60
2019-01-13T21:00:41.803Z,1.90
2019-01-13T21:03:10.854Z,1.67
2019-01-13T21:05:40.086Z,2.00
2019-01-13T21:08:09.045Z,1.90
2019-01-13T21:10:37.924Z,1.87
2019-01-13T21:13:07.271Z,1.60
2019-01-13T21:15:36.986Z,2.00
2019-01-13T21:18:05.914Z,2.07
2019-01-13T21:20:34.907Z,2.00
2019-01-13T21:23:04.242Z,1.70
2019-01-13T21:25:33.157Z,2.03
2019-01-13T21:28:02.963Z,1.83
2019-01-13T21:30:32.682Z,1.70
2019-01-13T21:33:02.042Z,1.80
2019-01-13T21:35:34.089Z,1.50
2019-01-13T21:38:02.267Z,1.50
2019-01-13T21:40:31.429Z,1.67
2019-01-13T21:43:00.195Z,1.70
2019-01-13T21:45:29.128Z,1.43
2019-01-13T21:47:58.414Z,1.50
2019-01-13T21:50:28.429Z,1.80
2019-01-13T21:52:57.572Z,1.67
2019-01-13T21:55:26.814Z,1.47
2019-01-13T21:57:56.135Z,1.37
2019-01-13T22:00:26.729Z,1.03
2019-01-13T22:02:56.283Z,1.10
2019-01-13T22:05:25.686Z,1.10
2019-01-13T22:07:54.890Z,1.00
2019-01-13T22:10:24.802Z,0.90
2019-01-13T22:12:54.515Z,0.90
2019-01-13T22:15:24.115Z,0.90
2019-01-13T22:17:53.044Z,0.80
2019-01-13T22:20:22.858Z,1.03
2019-01-13T22:22:52.282Z,0.70
2019-01-13T22:25:21.600Z,0.80
2019-01-13T22:27:50.786Z,0.83
2019-01-13T22:30:21.771Z,0.60
2019-01-13T22:32:50.669Z,0.93
2019-01-13T22:35:20.338Z,0.80
2019-01-13T22:37:55.626Z,0.80
2019-01-13T22:40:20.037Z,0.90
2019-01-13T22:42:49.136Z,0.77
2019-01-13T22:45:20.594Z,0.90
2019-01-13T22:47:49.870Z,0.90
2019-01-13T22:50:18.903Z,0.87
2019-01-13T22:52:47.860Z,1.00
2019-01-13T22:55:17.046Z,0.87
2019-01-13T22:57:45.930Z,0.90
2019-01-13T23:00:51.075Z,0.90
2019-01-13T23:03:20.533Z,0.70
2019-01-13T23:05:55.649Z,1.10
2019-01-13T23:08:20.970Z,1.10
2019-01-13T23:10:49.944Z,0.90
2019-01-13T23:13:19.566Z,0.83
2019-01-13T23:15:48.373Z,1.10
2019-01-13T23:18:17.482Z,0.77
2019-01-13T23:20:46.416Z,0.70
2019-01-13T23:23:15.377Z,1.00
2019-01-13T23:25:44.220Z,0.80
2019-01-13T23:28:13.127Z,0.80
2019-01-13T23:30:42.351Z,0.90
2019-01-13T23:33:11.518Z,0.80
2019-01-13T23:35:40.645Z,0.87
2019-01-13T23:38:09.858Z,1.20
2019-01-13T23:40:38.973Z,0.90
2019-01-13T23:43:08.127Z,0.77
2019-01-13T23:45:37.159Z,1.10
2019-01-13T23:48:06.072Z,0.83
2019-01-13T23:50:35.070Z,0.90
2019-01-13T23:53:04.085Z,1.00
2019-01-13T23:55:33.008Z,1.07
2019-01-13T23:58:01.934Z,1.33
